createdAt,value
2022-08-04T00:01:45.661Z,38.70
2022-08-04T00:04:18.399Z,38.80
2022-08-04T00:06:55.511Z,38.90
2022-08-04T00:09:30.946Z,39.10
2022-08-04T00:12:02.903Z,38.90
2022-08-04T00:14:33.623Z,39.00
2022-08-04T00:17:03.389Z,39.10
2022-08-04T00:19:32.328Z,38.90
2022-08-04T00:22:02.747Z,39.00
2022-08-04T00:24:32.293Z,38.50
2022-08-04T00:27:00.040Z,38.70
2022-08-04T00:29:27.493Z,38.50
2022-08-04T00:31:57.841Z,38.60
2022-08-04T00:34:26.803Z,38.90
2022-08-04T00:36:55.048Z,39.30
2022-08-04T00:39:22.240Z,39.20
2022-08-04T00:42:08.583Z,39.30
2022-08-04T00:44:44.541Z,39.20
2022-08-04T00:47:28.523Z,39.80
2022-08-04T00:50:07.995Z,40.20
2022-08-04T00:52:53.279Z,40.00
2022-08-04T00:55:42.092Z,40.40
2022-08-04T00:58:31.298Z,39.20
2022-08-04T01:01:03.064Z,39.30
2022-08-04T01:03:45.852Z,39.80
2022-08-04T01:06:18.299Z,40.10
2022-08-04T01:09:01.515Z,39.40
2022-08-04T01:11:57.080Z,39.10
2022-08-04T01:14:47.395Z,39.20
2022-08-04T01:17:25.846Z,39.60
2022-08-04T01:20:01.059Z,40.20
2022-08-04T01:23:05.210Z,40.60
2022-08-04T01:26:02.124Z,39.60
2022-08-04T01:28:46.464Z,39.70
2022-08-04T01:31:25.889Z,39.60
2022-08-04T01:34:04.332Z,40.20
2022-08-04T01:36:34.551Z,40.50
2022-08-04T01:39:02.485Z,40.80
2022-08-04T01:41:32.544Z,40.10
2022-08-04T01:44:01.967Z,39.80
2022-08-04T01:46:35.211Z,40.40
2022-08-04T01:49:03.358Z,39.90
2022-08-04T01:51:32.914Z,40.60
2022-08-04T01:53:59.793Z,41.30
2022-08-04T01:56:29.237Z,40.90
2022-08-04T01:58:58.045Z,40.70
2022-08-04T02:01:24.964Z,40.40
2022-08-04T02:04:21.698Z,40.30
2022-08-04T02:06:49.133Z,40.30
2022-08-04T02:09:23.062Z,40.40
2022-08-04T02:12:00.317Z,40.70
2022-08-04T02:14:30.776Z,40.70
2022-08-04T02:16:57.981Z,40.10
2022-08-04T02:19:33.010Z,40.40
2022-08-04T02:22:08.252Z,41.10
2022-08-04T02:24:49.265Z,41.20
2022-08-04T02:27:21.125Z,40.70
2022-08-04T02:29:54.222Z,40.40
2022-08-04T02:32:26.014Z,40.90
2022-08-04T02:35:00.586Z,40.70
2022-08-04T02:37:30.458Z,40.70
2022-08-04T02:39:59.770Z,40.80
2022-08-04T02:42:27.766Z,40.10
2022-08-04T02:44:58.423Z,40.80
2022-08-04T02:48:30.735Z,40.80
2022-08-04T02:50:28.945Z,41.10
2022-08-04T02:52:58.188Z,40.50
2022-08-04T02:55:27.347Z,40.30
2022-08-04T02:57:56.340Z,41.00
2022-08-04T03:00:23.912Z,40.70
2022-08-04T03:03:00.102Z,40.90
2022-08-04T03:05:49.948Z,40.50
2022-08-04T03:09:00.400Z,41.40
2022-08-04T03:11:56.345Z,40.90
2022-08-04T03:14:46.132Z,40.90
2022-08-04T03:17:52.959Z,41.80
2022-08-04T03:20:54.190Z,40.80
2022-08-04T03:23:52.168Z,41.50
2022-08-04T03:26:46.388Z,41.10
2022-08-04T03:29:41.708Z,40.80
2022-08-04T03:32:41.115Z,40.80
2022-08-04T03:35:26.329Z,41.20
2022-08-04T03:38:28.359Z,42.00
2022-08-04T03:42:03.230Z,41.90
2022-08-04T03:44:42.592Z,42.00
2022-08-04T03:47:45.481Z,41.50
2022-08-04T03:50:31.000Z,42.40
2022-08-04T03:53:21.595Z,41.70
2022-08-04T03:56:30.236Z,41.40
2022-08-04T03:59:22.733Z,40.90
2022-08-04T04:02:20.340Z,41.90
2022-08-04T04:04:59.719Z,41.30
2022-08-04T04:08:01.746Z,41.80
2022-08-04T04:10:44.245Z,40.80
2022-08-04T04:13:45.387Z,41.80
2022-08-04T04:16:26.056Z,41.90
2022-08-04T04:19:17.336Z,41.50
2022-08-04T04:21:58.540Z,41.40
2022-08-04T04:24:41.321Z,41.10
2022-08-04T04:27:22.761Z,41.10
2022-08-04T04:30:08.655Z,41.90
2022-08-04T04:32:47.223Z,42.90
2022-08-04T04:35:29.165Z,42.10
2022-08-04T04:38:21.227Z,42.60
2022-08-04T04:40:56.632Z,41.70
2022-08-04T04:43:52.781Z,41.90
2022-08-04T04:46:30.040Z,41.70
2022-08-04T04:49:05.187Z,42.50
2022-08-04T04:51:38.030Z,42.40
2022-08-04T04:54:11.129Z,42.50
2022-08-04T04:56:43.818Z,42.70
2022-08-04T04:59:16.818Z,42.40
2022-08-04T05:02:01.658Z,43.00
2022-08-04T05:04:55.321Z,43.10
2022-08-04T05:07:56.007Z,43.00
2022-08-04T05:10:35.365Z,43.80
2022-08-04T05:14:37.280Z,44.90
2022-08-04T05:16:18.982Z,43.70
2022-08-04T05:18:52.661Z,44.40
2022-08-04T05:21:36.842Z,44.70
2022-08-04T05:24:08.157Z,44.50
2022-08-04T05:26:41.317Z,44.40
2022-08-04T05:29:13.355Z,45.00
2022-08-04T05:31:49.760Z,45.00
2022-08-04T05:34:21.941Z,45.00
2022-08-04T05:36:51.755Z,44.80
2022-08-04T05:39:21.748Z,44.60
2022-08-04T05:41:55.577Z,44.60
2022-08-04T05:44:28.051Z,45.00
2022-08-04T05:46:58.451Z,44.50
2022-08-04T05:49:27.632Z,43.10
2022-08-04T05:51:58.880Z,43.00
2022-08-04T05:54:26.386Z,42.80
2022-08-04T05:56:54.489Z,42.30
2022-08-04T05:59:22.350Z,42.30
2022-08-04T06:01:55.300Z,42.20
2022-08-04T06:04:30.579Z,42.20
2022-08-04T06:06:57.422Z,42.40
2022-08-04T06:09:24.536Z,41.70
2022-08-04T06:12:00.689Z,41.50
2022-08-04T06:14:35.781Z,41.90
2022-08-04T06:17:05.623Z,40.90
2022-08-04T06:20:03.932Z,40.40
2022-08-04T06:22:44.595Z,40.60
2022-08-04T06:25:17.583Z,40.60
2022-08-04T06:27:44.713Z,40.60
2022-08-04T06:30:12.699Z,40.40
2022-08-04T06:32:41.962Z,40.00
2022-08-04T06:35:10.970Z,40.40
2022-08-04T06:37:42.943Z,39.80
2022-08-04T06:40:30.735Z,39.90
2022-08-04T06:43:02.717Z,38.60
2022-08-04T06:45:36.303Z,38.80
2022-08-04T06:48:06.842Z,38.90
2022-08-04T06:51:26.387Z,37.80
2022-08-04T06:53:24.711Z,37.10
2022-08-04T06:55:52.384Z,36.90
2022-08-04T06:58:21.645Z,37.00
2022-08-04T07:00:49.905Z,36.60
2022-08-04T07:03:19.459Z,36.50
2022-08-04T07:05:49.371Z,37.10
2022-08-04T07:08:40.672Z,35.80
2022-08-04T07:11:08.277Z,36.20
2022-08-04T07:13:36.316Z,35.70
2022-08-04T07:16:04.205Z,34.90
2022-08-04T07:18:31.382Z,35.10
2022-08-04T07:21:00.030Z,34.90
2022-08-04T07:23:27.905Z,34.60
2022-08-04T07:25:59.801Z,34.70
2022-08-04T07:28:40.287Z,32.80
2022-08-04T07:31:10.495Z,33.20
2022-08-04T07:34:21.109Z,33.10
2022-08-04T07:36:50.303Z,32.00
2022-08-04T07:39:27.338Z,32.10
2022-08-04T07:41:56.289Z,32.70
2022-08-04T07:44:23.210Z,32.90
2022-08-04T07:46:50.007Z,32.30
2022-08-04T07:49:54.803Z,31.90
2022-08-04T07:52:07.468Z,32.20
2022-08-04T07:54:47.358Z,31.60
2022-08-04T07:57:39.969Z,31.10
2022-08-04T08:00:10.564Z,31.40
2022-08-04T08:02:38.686Z,30.90
2022-08-04T08:05:07.537Z,30.60
2022-08-04T08:07:36.186Z,30.10
2022-08-04T08:10:17.839Z,31.30
2022-08-04T08:12:51.284Z,29.70
2022-08-04T08:15:19.636Z,30.00
2022-08-04T08:17:59.617Z,29.90
2022-08-04T08:20:32.010Z,29.40
2022-08-04T08:23:01.812Z,28.90
2022-08-04T08:25:30.401Z,29.70
2022-08-04T08:27:57.437Z,29.00
2022-08-04T08:30:24.592Z,28.20
2022-08-04T08:33:02.282Z,29.20
2022-08-04T08:35:54.169Z,27.80
2022-08-04T08:38:36.426Z,27.80
2022-08-04T08:41:43.762Z,28.90
2022-08-04T08:44:52.860Z,28.50
2022-08-04T08:48:04.887Z,28.30
2022-08-04T08:50:52.412Z,27.70
2022-08-04T08:53:37.185Z,27.50
2022-08-04T08:56:31.010Z,26.80
2022-08-04T08:59:17.565Z,27.90
2022-08-04T09:01:58.461Z,27.30
2022-08-04T09:04:39.783Z,26.90
2022-08-04T09:07:21.806Z,25.60
2022-08-04T09:10:02.016Z,25.70
2022-08-04T09:12:39.309Z,26.60
2022-08-04T09:15:12.860Z,26.70
2022-08-04T09:17:45.375Z,27.30
2022-08-04T09:20:22.069Z,26.50
2022-08-04T09:22:52.226Z,26.90
2022-08-04T09:25:24.115Z,27.00
2022-08-04T09:27:53.288Z,27.00
2022-08-04T09:30:22.344Z,26.10
2022-08-04T09:33:01.456Z,25.60
2022-08-04T09:35:39.255Z,26.30
2022-08-04T09:38:15.263Z,25.50
2022-08-04T09:40:53.202Z,26.40
2022-08-04T09:43:57.071Z,25.40
2022-08-04T09:46:27.920Z,24.60
2022-08-04T09:48:59.743Z,25.50
2022-08-04T09:51:58.451Z,25.80
2022-08-04T09:54:39.630Z,25.30
2022-08-04T09:57:15.004Z,25.70
2022-08-04T09:59:48.860Z,25.40
2022-08-04T10:02:19.301Z,25.90
2022-08-04T10:04:49.118Z,24.80
2022-08-04T10:08:15.890Z,25.10
2022-08-04T10:10:46.139Z,25.10
2022-08-04T10:13:23.576Z,24.90
2022-08-04T10:16:03.726Z,25.50
2022-08-04T10:18:44.815Z,23.70
2022-08-04T10:21:19.588Z,25.10
2022-08-04T10:24:10.872Z,25.20
2022-08-04T10:26:46.891Z,26.00
2022-08-04T10:29:22.269Z,24.70
2022-08-04T10:32:07.253Z,23.70
2022-08-04T10:34:51.782Z,23.80
2022-08-04T10:37:59.742Z,25.00
2022-08-04T10:40:16.927Z,24.70
2022-08-04T10:42:53.780Z,24.40
2022-08-04T10:45:26.226Z,23.60
2022-08-04T10:48:15.917Z,24.40
2022-08-04T10:51:02.255Z,23.70
2022-08-04T10:53:30.955Z,24.50
2022-08-04T10:56:05.539Z,22.70
2022-08-04T10:58:48.454Z,23.60
2022-08-04T11:02:00.164Z,24.30
2022-08-04T11:04:16.822Z,24.50
2022-08-04T11:06:55.428Z,22.60
2022-08-04T11:09:23.103Z,22.10
2022-08-04T11:12:00.708Z,23.80
2022-08-04T11:14:33.978Z,22.40
2022-08-04T11:17:07.800Z,23.80
2022-08-04T11:19:41.969Z,22.50
2022-08-04T11:22:25.419Z,23.10
2022-08-04T11:24:57.708Z,20.60
2022-08-04T11:27:32.428Z,23.10
2022-08-04T11:30:04.294Z,23.50
2022-08-04T11:32:41.244Z,22.10
2022-08-04T11:35:13.962Z,23.20
2022-08-04T11:37:45.898Z,21.00
2022-08-04T11:40:26.265Z,22.40
2022-08-04T11:42:57.167Z,22.50
2022-08-04T11:45:31.274Z,22.70
2022-08-04T11:48:04.763Z,22.90
2022-08-04T11:50:37.223Z,23.60
2022-08-04T11:53:05.681Z,24.50
2022-08-04T11:56:07.846Z,24.20
2022-08-04T11:58:21.995Z,24.00
2022-08-04T12:00:58.921Z,22.40
2022-08-04T12:03:37.770Z,23.20
2022-08-04T12:06:17.657Z,23.00
2022-08-04T12:09:00.229Z,24.00
2022-08-04T12:11:51.156Z,23.40
2022-08-04T12:14:28.405Z,23.10
2022-08-04T12:16:59.489Z,22.60
2022-08-04T12:19:57.081Z,22.70
2022-08-04T12:22:23.375Z,23.40
2022-08-04T12:25:02.720Z,21.80
2022-08-04T12:27:34.943Z,22.90
2022-08-04T12:30:57.865Z,23.00
2022-08-04T12:32:55.867Z,22.00
2022-08-04T12:35:31.026Z,23.30
2022-08-04T12:38:03.300Z,22.90
2022-08-04T12:40:36.714Z,21.30
2022-08-04T12:43:10.274Z,21.30
2022-08-04T12:45:43.785Z,22.40
2022-08-04T12:48:21.018Z,21.90
2022-08-04T12:50:51.843Z,20.90
2022-08-04T12:53:31.825Z,21.10
2022-08-04T12:56:01.371Z,20.60
2022-08-04T12:58:43.205Z,23.10
2022-08-04T13:02:09.813Z,23.10
2022-08-04T13:04:02.805Z,22.00
2022-08-04T13:06:34.788Z,20.70
2022-08-04T13:09:09.338Z,21.80
2022-08-04T13:11:39.585Z,20.80
2022-08-04T13:14:26.183Z,20.00
2022-08-04T13:16:57.866Z,21.10
2022-08-04T13:19:25.305Z,21.00
2022-08-04T13:22:03.271Z,21.50
2022-08-04T13:24:37.602Z,21.40
2022-08-04T13:27:23.247Z,20.90
2022-08-04T13:30:00.750Z,20.90
2022-08-04T13:32:31.755Z,21.20
2022-08-04T13:35:01.493Z,22.60
2022-08-04T13:37:35.782Z,20.90
2022-08-04T13:40:04.286Z,22.00
2022-08-04T13:42:33.572Z,22.70
2022-08-04T13:45:05.848Z,22.30
2022-08-04T13:47:36.498Z,22.10
2022-08-04T13:50:16.486Z,21.00
2022-08-04T13:52:45.611Z,23.10
2022-08-04T13:55:21.621Z,22.50
2022-08-04T13:57:53.176Z,21.10
2022-08-04T14:00:29.704Z,19.80
2022-08-04T14:03:03.325Z,21.30
2022-08-04T14:05:35.413Z,21.90
2022-08-04T14:08:24.801Z,22.20
2022-08-04T14:10:55.581Z,19.80
2022-08-04T14:13:29.715Z,21.20
2022-08-04T14:16:18.950Z,21.40
2022-08-04T14:18:46.499Z,20.90
2022-08-04T14:21:14.816Z,19.70
2022-08-04T14:23:46.933Z,21.20
2022-08-04T14:26:17.003Z,21.20
2022-08-04T14:29:25.802Z,21.30
2022-08-04T14:31:32.602Z,21.00
2022-08-04T14:34:03.204Z,19.90
2022-08-04T14:36:56.026Z,21.10
2022-08-04T14:39:42.291Z,19.80
2022-08-04T14:42:40.604Z,20.60
2022-08-04T14:45:08.809Z,20.90
2022-08-04T14:47:52.631Z,20.00
2022-08-04T14:50:20.270Z,20.20
2022-08-04T14:52:47.088Z,20.50
2022-08-04T14:55:21.352Z,20.70
2022-08-04T14:58:36.057Z,19.80
2022-08-04T15:00:36.791Z,21.30
2022-08-04T15:03:05.982Z,22.20
2022-08-04T15:06:03.130Z,21.60
2022-08-04T15:08:20.003Z,22.60
2022-08-04T15:11:23.098Z,20.10
2022-08-04T15:13:51.343Z,20.90
2022-08-04T15:16:18.385Z,20.90
2022-08-04T15:18:48.142Z,20.50
2022-08-04T15:21:17.069Z,20.70
2022-08-04T15:23:43.932Z,19.80
2022-08-04T15:26:16.917Z,20.00
2022-08-04T15:28:48.791Z,19.90
2022-08-04T15:32:05.472Z,21.20
2022-08-04T15:34:04.598Z,21.30
2022-08-04T15:36:41.074Z,19.70
2022-08-04T15:39:19.929Z,20.80
2022-08-04T15:41:56.439Z,20.40
2022-08-04T15:44:58.670Z,20.80
2022-08-04T15:47:25.887Z,20.30
2022-08-04T15:50:08.548Z,19.70
2022-08-04T15:53:10.597Z,20.60
2022-08-04T15:55:41.055Z,20.40
2022-08-04T15:58:11.418Z,19.70
2022-08-04T16:01:15.555Z,20.20
2022-08-04T16:03:58.502Z,21.30
2022-08-04T16:06:43.441Z,20.00
2022-08-04T16:09:21.709Z,21.50
2022-08-04T16:11:48.434Z,20.00
2022-08-04T16:14:16.729Z,20.70
2022-08-04T16:16:47.988Z,20.30
2022-08-04T16:19:24.314Z,20.30
2022-08-04T16:21:52.723Z,19.80
2022-08-04T16:24:21.307Z,20.10
2022-08-04T16:26:54.884Z,19.50
2022-08-04T16:29:36.194Z,20.00
2022-08-04T16:32:17.252Z,20.10
2022-08-04T16:34:49.989Z,20.10
2022-08-04T16:37:23.359Z,19.80
2022-08-04T16:39:51.965Z,19.50
2022-08-04T16:42:33.012Z,20.70
2022-08-04T16:45:09.676Z,21.30
2022-08-04T16:48:01.872Z,20.00
2022-08-04T16:50:29.211Z,21.60
2022-08-04T16:52:56.095Z,20.80
2022-08-04T16:55:27.200Z,20.40
2022-08-04T16:57:56.209Z,20.20
2022-08-04T17:00:31.967Z,20.40
2022-08-04T17:03:01.421Z,20.40
2022-08-04T17:05:38.842Z,20.40
2022-08-04T17:08:28.619Z,20.60
2022-08-04T17:10:54.135Z,20.90
2022-08-04T17:14:03.839Z,20.30
2022-08-04T17:16:18.336Z,19.90
2022-08-04T17:18:47.509Z,20.00
2022-08-04T17:21:16.404Z,20.00
2022-08-04T17:24:15.196Z,19.80
2022-08-04T17:26:39.732Z,19.80
2022-08-04T17:29:09.125Z,19.90
2022-08-04T17:31:40.641Z,20.60
2022-08-04T17:34:16.052Z,20.60
2022-08-04T17:36:46.010Z,20.30
2022-08-04T17:39:17.180Z,20.50
2022-08-04T17:41:48.753Z,20.60
2022-08-04T17:44:16.447Z,20.60
2022-08-04T17:46:48.499Z,20.90
2022-08-04T17:49:21.794Z,21.40
2022-08-04T17:52:04.632Z,21.00
2022-08-04T17:54:39.052Z,21.20
2022-08-04T17:57:19.911Z,21.20
2022-08-04T17:59:57.639Z,21.40
2022-08-04T18:02:33.562Z,21.60
2022-08-04T18:05:07.268Z,22.40
2022-08-04T18:08:34.553Z,22.40
2022-08-04T18:13:24.337Z,23.50
2022-08-04T18:15:59.838Z,23.20
2022-08-04T18:18:28.156Z,23.40
2022-08-04T18:20:54.961Z,23.50
2022-08-04T18:23:32.183Z,23.60
2022-08-04T18:26:02.401Z,23.40
2022-08-04T18:28:33.289Z,23.70
2022-08-04T18:31:01.240Z,23.80
2022-08-04T18:33:39.642Z,24.20
2022-08-04T18:36:33.612Z,24.50
2022-08-04T18:38:58.665Z,24.90
2022-08-04T18:41:26.677Z,25.30
2022-08-04T18:43:56.133Z,25.30
2022-08-04T18:51:00.923Z,25.60
2022-08-04T18:51:59.600Z,25.70
2022-08-04T18:54:28.576Z,25.90
2022-08-04T18:57:32.103Z,26.00
2022-08-04T18:59:46.945Z,26.10
2022-08-04T19:02:17.330Z,26.40
2022-08-04T19:04:49.688Z,26.60
2022-08-04T19:07:33.726Z,26.80
2022-08-04T19:10:07.369Z,26.60
2022-08-04T19:12:53.599Z,26.60
2022-08-04T19:15:20.612Z,26.60
2022-08-04T19:18:01.520Z,26.60
2022-08-04T19:20:30.681Z,27.00
2022-08-04T19:24:27.515Z,26.90
2022-08-04T19:26:01.541Z,27.10
2022-08-04T19:28:35.246Z,27.40
2022-08-04T19:31:03.390Z,27.50
2022-08-04T19:33:58.128Z,27.60
2022-08-04T19:36:18.490Z,27.70
2022-08-04T19:38:45.575Z,27.70
2022-08-04T19:41:14.232Z,27.80
2022-08-04T19:43:43.853Z,27.80
2022-08-04T19:46:12.302Z,27.90
2022-08-04T19:48:39.350Z,27.90
2022-08-04T19:51:07.722Z,27.90
2022-08-04T19:53:37.437Z,28.10
2022-08-04T19:56:10.275Z,28.20
2022-08-04T19:58:37.094Z,28.30
2022-08-04T20:01:04.022Z,28.30
2022-08-04T20:04:09.775Z,28.50
2022-08-04T20:06:37.885Z,28.60
2022-08-04T20:09:24.820Z,28.80
2022-08-04T20:11:53.148Z,28.90
2022-08-04T20:14:19.933Z,29.10
2022-08-04T20:16:58.604Z,29.30
2022-08-04T20:19:25.362Z,29.20
2022-08-04T20:21:56.138Z,29.60
2022-08-04T20:24:38.103Z,29.80
2022-08-04T20:27:11.699Z,30.00
2022-08-04T20:29:46.127Z,30.00
2022-08-04T20:32:29.232Z,30.00
2022-08-04T20:34:56.773Z,30.00
2022-08-04T20:37:26.229Z,30.20
2022-08-04T20:40:14.130Z,30.30
2022-08-04T20:42:41.515Z,30.70
2022-08-04T20:45:16.419Z,31.10
2022-08-04T20:47:43.887Z,31.20
2022-08-04T20:50:16.955Z,31.40
2022-08-04T20:52:43.666Z,31.70
2022-08-04T20:55:10.994Z,31.40
2022-08-04T20:57:49.693Z,31.30
2022-08-04T21:00:26.089Z,31.30
2022-08-04T21:02:53.506Z,31.70
2022-08-04T21:05:20.731Z,32.00
2022-08-04T21:07:48.959Z,32.20
2022-08-04T21:10:16.119Z,32.30
2022-08-04T21:15:58.401Z,32.40
2022-08-04T21:18:18.807Z,32.30
2022-08-04T21:20:55.996Z,32.40
2022-08-04T21:23:22.688Z,32.20
2022-08-04T21:25:55.713Z,32.40
2022-08-04T21:28:26.200Z,32.50
2022-08-04T21:30:55.893Z,32.60
2022-08-04T21:33:24.100Z,32.90
2022-08-04T21:36:10.722Z,32.90
2022-08-04T21:38:39.121Z,32.80
2022-08-04T21:41:08.665Z,33.00
2022-08-04T21:43:42.876Z,33.10
2022-08-04T21:46:10.338Z,33.50
2022-08-04T21:48:39.186Z,33.50
2022-08-04T21:51:21.787Z,33.70
2022-08-04T21:54:04.415Z,33.70
2022-08-04T21:56:32.510Z,33.90
2022-08-04T21:59:00.647Z,34.10
2022-08-04T22:01:50.003Z,34.10
2022-08-04T22:04:15.708Z,33.90
2022-08-04T22:06:42.377Z,34.10
2022-08-04T22:09:18.478Z,34.00
2022-08-04T22:11:50.607Z,34.10
2022-08-04T22:14:29.552Z,34.20
2022-08-04T22:17:01.595Z,34.60
2022-08-04T22:19:50.739Z,34.60
2022-08-04T22:22:26.329Z,34.60
2022-08-04T22:24:54.479Z,34.90
2022-08-04T22:27:21.262Z,35.40
2022-08-04T22:29:49.361Z,35.10
2022-08-04T22:32:16.022Z,35.10
2022-08-04T22:34:45.467Z,34.90
2022-08-04T22:37:19.933Z,35.40
2022-08-04T22:39:56.930Z,33.80
2022-08-04T22:42:24.021Z,33.70
2022-08-04T22:44:52.141Z,34.80
2022-08-04T22:47:20.164Z,35.30
2022-08-04T22:49:56.554Z,35.20
2022-08-04T22:52:34.171Z,35.70
2022-08-04T22:55:00.866Z,36.30
2022-08-04T22:57:43.633Z,37.20
2022-08-04T23:00:16.855Z,37.80
2022-08-04T23:02:43.543Z,38.30
2022-08-04T23:05:10.959Z,38.50
2022-08-04T23:07:49.094Z,38.40
2022-08-04T23:10:16.260Z,38.70
2022-08-04T23:12:43.035Z,39.10
2022-08-04T23:15:13.240Z,39.20
2022-08-04T23:17:43.869Z,39.10
2022-08-04T23:20:23.173Z,39.60
2022-08-04T23:22:59.038Z,39.40
2022-08-04T23:26:08.699Z,39.30
2022-08-04T23:28:25.835Z,39.80
2022-08-04T23:30:53.745Z,39.60
2022-08-04T23:33:22.114Z,39.50
2022-08-04T23:35:50.023Z,40.00
2022-08-04T23:38:31.288Z,40.30
2022-08-04T23:41:05.410Z,39.90
2022-08-04T23:43:49.242Z,40.30
2022-08-04T23:46:20.383Z,40.40
2022-08-04T23:48:48.925Z,40.30
2022-08-04T23:51:15.873Z,40.40
2022-08-04T23:54:02.299Z,40.50
2022-08-04T23:56:29.963Z,40.20
2022-08-04T23:58:56.766Z,40.20
